createdAt,value
2022-10-24T00:00:35.433Z,13.50
2022-10-24T00:03:28.748Z,13.66
2022-10-24T00:06:02.163Z,13.76
2022-10-24T00:08:35.496Z,13.90
2022-10-24T00:11:14.267Z,14.00
2022-10-24T00:13:48.144Z,14.10
2022-10-24T00:16:22.071Z,14.12
2022-10-24T00:18:55.718Z,14.20
2022-10-24T00:21:28.949Z,14.20
2022-10-24T00:24:02.169Z,14.20
2022-10-24T00:26:36.212Z,14.30
2022-10-24T00:29:09.570Z,14.30
2022-10-24T00:31:43.111Z,14.34
2022-10-24T00:34:16.758Z,14.40
2022-10-24T00:36:50.383Z,14.40
2022-10-24T00:39:24.181Z,14.34
2022-10-24T00:41:59.066Z,14.30
2022-10-24T00:44:36.980Z,14.30
2022-10-24T00:47:17.177Z,14.40
2022-10-24T00:50:00.678Z,14.40
2022-10-24T00:52:42.045Z,14.50
2022-10-24T00:55:17.254Z,14.50
2022-10-24T00:57:54.191Z,14.60
2022-10-24T01:00:32.515Z,14.60
2022-10-24T01:03:06.633Z,14.60
2022-10-24T01:05:57.552Z,14.60
2022-10-24T01:08:43.150Z,14.60
2022-10-24T01:11:35.256Z,14.60
2022-10-24T01:14:27.360Z,14.60
2022-10-24T01:17:12.765Z,14.60
2022-10-24T01:20:29.869Z,14.52
2022-10-24T01:23:35.332Z,14.50
2022-10-24T01:26:49.015Z,14.40
2022-10-24T01:29:32.059Z,14.34
2022-10-24T01:32:10.970Z,14.30
2022-10-24T01:34:52.205Z,14.30
2022-10-24T01:37:36.433Z,14.20
2022-10-24T01:40:18.477Z,14.12
2022-10-24T01:42:58.157Z,14.10
2022-10-24T01:45:38.012Z,14.10
2022-10-24T01:48:17.050Z,14.10
2022-10-24T01:50:54.557Z,14.10
2022-10-24T01:53:30.031Z,14.14
2022-10-24T01:56:04.010Z,14.10
2022-10-24T01:58:37.828Z,14.10
2022-10-24T02:01:17.115Z,14.10
2022-10-24T02:03:55.688Z,14.10
2022-10-24T02:06:36.423Z,14.10
2022-10-24T02:09:16.357Z,14.10
2022-10-24T02:11:53.279Z,14.10
2022-10-24T02:14:34.537Z,14.10
2022-10-24T02:17:08.268Z,14.10
2022-10-24T02:19:41.578Z,14.10
2022-10-24T02:22:27.358Z,14.10
2022-10-24T02:25:08.360Z,14.20
2022-10-24T02:27:49.043Z,14.20
2022-10-24T02:30:26.565Z,14.20
2022-10-24T02:33:02.310Z,14.20
2022-10-24T02:35:40.105Z,14.20
2022-10-24T02:38:20.102Z,14.20
2022-10-24T02:40:55.548Z,14.20
2022-10-24T02:43:31.455Z,14.20
2022-10-24T02:46:08.308Z,14.20
2022-10-24T02:48:48.883Z,14.20
2022-10-24T02:51:27.104Z,14.30
2022-10-24T02:54:05.730Z,14.30
2022-10-24T02:56:43.911Z,14.30
2022-10-24T02:59:18.025Z,14.30
2022-10-24T03:01:51.740Z,14.30
2022-10-24T03:04:25.612Z,14.30
2022-10-24T03:06:59.951Z,14.40
2022-10-24T03:09:33.485Z,14.40
2022-10-24T03:12:07.992Z,14.40
2022-10-24T03:14:42.457Z,14.40
2022-10-24T03:17:16.023Z,14.34
2022-10-24T03:19:50.034Z,14.30
2022-10-24T03:22:26.412Z,14.40
2022-10-24T03:25:03.760Z,14.40
2022-10-24T03:27:37.661Z,14.42
2022-10-24T03:30:13.681Z,14.50
2022-10-24T03:32:47.501Z,14.50
2022-10-24T03:35:21.742Z,14.50
2022-10-24T03:37:55.339Z,14.50
2022-10-24T03:40:28.834Z,14.42
2022-10-24T03:43:02.337Z,14.50
2022-10-24T03:45:37.582Z,14.50
2022-10-24T03:48:11.688Z,14.60
2022-10-24T03:50:45.409Z,14.60
2022-10-24T03:53:19.540Z,14.64
2022-10-24T03:55:52.979Z,14.66
2022-10-24T03:58:29.229Z,14.62
2022-10-24T04:01:03.056Z,14.64
2022-10-24T04:03:56.401Z,14.70
2022-10-24T04:06:31.412Z,14.76
2022-10-24T04:09:07.569Z,14.80
2022-10-24T04:11:41.449Z,14.82
2022-10-24T04:14:14.754Z,14.90
2022-10-24T04:16:48.176Z,14.90
2022-10-24T04:19:21.369Z,14.84
2022-10-24T04:21:54.779Z,14.90
2022-10-24T04:24:27.977Z,14.90
2022-10-24T04:27:01.375Z,14.98
2022-10-24T04:29:35.066Z,15.00
2022-10-24T04:32:08.903Z,15.02
2022-10-24T04:34:42.833Z,15.10
2022-10-24T04:37:16.325Z,15.08
2022-10-24T04:39:49.838Z,15.04
2022-10-24T04:42:23.616Z,15.04
2022-10-24T04:44:57.035Z,15.10
2022-10-24T04:47:31.043Z,15.10
2022-10-24T04:50:04.978Z,15.10
2022-10-24T04:52:38.549Z,15.06
2022-10-24T04:55:12.746Z,15.00
2022-10-24T04:57:46.464Z,15.00
2022-10-24T05:00:21.348Z,15.00
2022-10-24T05:02:56.802Z,15.00
2022-10-24T05:05:32.759Z,15.00
2022-10-24T05:08:06.306Z,15.00
2022-10-24T05:10:39.654Z,15.00
2022-10-24T05:13:16.306Z,14.98
2022-10-24T05:15:49.662Z,15.00
2022-10-24T05:18:25.475Z,15.00
2022-10-24T05:21:01.851Z,15.00
2022-10-24T05:23:35.234Z,15.00
2022-10-24T05:26:08.956Z,15.00
2022-10-24T05:28:42.515Z,15.00
2022-10-24T05:31:16.104Z,15.00
2022-10-24T05:33:49.638Z,14.92
2022-10-24T05:36:23.417Z,14.90
2022-10-24T05:38:56.916Z,14.90
2022-10-24T05:41:30.080Z,14.90
2022-10-24T05:44:03.327Z,14.92
2022-10-24T05:46:36.572Z,14.92
2022-10-24T05:49:10.335Z,14.90
2022-10-24T05:51:43.584Z,14.90
2022-10-24T05:54:16.980Z,14.92
2022-10-24T05:56:50.161Z,15.00
2022-10-24T05:59:23.490Z,15.04
2022-10-24T06:01:56.762Z,15.10
2022-10-24T06:04:30.152Z,15.14
2022-10-24T06:07:12.306Z,15.18
2022-10-24T06:09:45.716Z,15.20
2022-10-24T06:12:18.858Z,15.20
2022-10-24T06:14:52.018Z,15.20
2022-10-24T06:17:25.244Z,15.20
2022-10-24T06:19:58.344Z,15.30
2022-10-24T06:22:31.462Z,15.32
2022-10-24T06:25:04.926Z,15.40
2022-10-24T06:27:38.151Z,15.48
2022-10-24T06:30:13.007Z,15.50
2022-10-24T06:32:48.751Z,15.50
2022-10-24T06:35:22.683Z,15.60
2022-10-24T06:37:55.842Z,15.68
2022-10-24T06:40:28.947Z,15.70
2022-10-24T06:43:02.052Z,15.80
2022-10-24T06:45:35.312Z,15.90
2022-10-24T06:48:10.608Z,16.00
2022-10-24T06:50:43.836Z,16.00
2022-10-24T06:53:17.292Z,16.00
2022-10-24T06:55:50.504Z,16.04
2022-10-24T06:58:23.834Z,16.10
2022-10-24T07:00:57.053Z,16.20
2022-10-24T07:03:30.515Z,16.30
2022-10-24T07:06:08.565Z,16.40
2022-10-24T07:08:41.692Z,16.50
2022-10-24T07:11:15.708Z,16.50
2022-10-24T07:13:49.377Z,16.60
2022-10-24T07:16:22.602Z,16.70
2022-10-24T07:18:55.897Z,16.80
2022-10-24T07:21:31.838Z,16.90
2022-10-24T07:24:06.021Z,17.00
2022-10-24T07:26:40.016Z,17.10
2022-10-24T07:29:13.078Z,17.20
2022-10-24T07:31:47.375Z,17.34
2022-10-24T07:34:21.481Z,17.50
2022-10-24T07:36:54.605Z,17.60
2022-10-24T07:39:27.666Z,17.80
2022-10-24T07:42:01.026Z,17.90
2022-10-24T07:44:34.190Z,18.00
2022-10-24T07:47:09.087Z,18.10
2022-10-24T07:49:42.199Z,18.20
2022-10-24T07:52:15.451Z,18.38
2022-10-24T07:54:48.708Z,18.50
2022-10-24T07:57:22.110Z,18.60
2022-10-24T07:59:55.371Z,18.70
2022-10-24T08:02:28.518Z,18.80
2022-10-24T08:05:01.738Z,18.90
2022-10-24T08:07:55.838Z,19.00
2022-10-24T08:10:39.194Z,19.16
2022-10-24T08:13:13.630Z,19.20
2022-10-24T08:15:47.535Z,19.30
2022-10-24T08:18:20.796Z,19.34
2022-10-24T08:21:03.412Z,19.40
2022-10-24T08:23:38.488Z,19.50
2022-10-24T08:26:16.442Z,19.54
2022-10-24T08:28:50.044Z,19.60
2022-10-24T08:31:25.451Z,19.70
2022-10-24T08:33:59.605Z,19.70
2022-10-24T08:36:36.298Z,19.80
2022-10-24T08:39:09.804Z,19.90
2022-10-24T08:41:47.820Z,19.96
2022-10-24T08:44:30.260Z,20.00
2022-10-24T08:47:16.387Z,20.10
2022-10-24T08:49:55.349Z,20.14
2022-10-24T08:52:36.589Z,20.20
2022-10-24T08:58:16.485Z,20.50
2022-10-24T09:00:54.473Z,20.56
2022-10-24T09:06:30.814Z,20.70
2022-10-24T09:09:06.936Z,20.80
2022-10-24T09:11:52.300Z,20.80
2022-10-24T09:14:28.682Z,20.90
2022-10-24T09:17:14.370Z,21.00
2022-10-24T09:19:52.887Z,21.10
2022-10-24T09:22:29.242Z,21.10
2022-10-24T09:25:07.964Z,21.20
2022-10-24T09:27:43.413Z,21.20
2022-10-24T09:30:22.329Z,21.30
2022-10-24T09:32:59.434Z,21.40
2022-10-24T09:35:35.461Z,21.44
2022-10-24T09:38:33.541Z,21.60
2022-10-24T09:41:19.836Z,21.78
2022-10-24T09:43:56.534Z,21.90
2022-10-24T09:46:36.818Z,22.00
2022-10-24T09:49:23.605Z,22.10
2022-10-24T09:52:08.135Z,22.22
2022-10-24T09:54:41.209Z,22.30
2022-10-24T09:57:21.472Z,22.40
2022-10-24T10:00:03.508Z,22.50
2022-10-24T10:02:38.672Z,22.64
2022-10-24T10:05:22.309Z,22.78
2022-10-24T10:22:07.306Z,23.90
2022-10-24T10:24:46.729Z,23.90
2022-10-24T10:27:33.976Z,23.80
2022-10-24T10:30:25.131Z,23.70
2022-10-24T10:33:16.033Z,23.60
2022-10-24T10:35:59.452Z,23.60
2022-10-24T10:38:49.498Z,23.60
2022-10-24T10:41:45.293Z,23.60
2022-10-24T10:44:49.353Z,23.74
2022-10-24T10:47:40.876Z,23.88
2022-10-24T10:50:34.557Z,23.90
2022-10-24T10:53:36.549Z,23.90
2022-10-24T10:56:32.439Z,23.80
2022-10-24T10:59:29.908Z,23.82
2022-10-24T11:02:28.265Z,23.80
2022-10-24T11:05:24.736Z,23.90
2022-10-24T11:08:14.779Z,24.06
2022-10-24T11:10:54.983Z,24.30
2022-10-24T11:13:38.016Z,24.58
2022-10-24T11:16:18.521Z,24.88
2022-10-24T11:18:57.191Z,25.20
2022-10-24T11:21:35.092Z,25.32
2022-10-24T11:24:15.829Z,25.40
2022-10-24T11:26:57.769Z,25.30
2022-10-24T11:29:39.548Z,25.24
2022-10-24T11:32:25.187Z,25.46
2022-10-24T11:35:06.299Z,25.82
2022-10-24T11:37:44.676Z,26.20
2022-10-24T11:40:22.742Z,26.48
2022-10-24T11:43:06.281Z,26.76
2022-10-24T11:45:55.809Z,28.76
2022-10-24T11:48:38.394Z,31.06
2022-10-24T11:51:19.529Z,32.72
2022-10-24T11:53:59.601Z,33.92
2022-10-24T11:56:40.550Z,34.52
2022-10-24T11:59:24.165Z,35.94
2022-10-24T12:02:52.115Z,37.44
2022-10-24T12:05:44.854Z,39.46
2022-10-24T12:08:51.522Z,40.32
2022-10-24T12:12:16.820Z,41.86
2022-10-24T12:15:10.576Z,43.08
2022-10-24T12:18:05.834Z,44.00
2022-10-24T12:20:41.656Z,44.22
2022-10-24T12:23:27.640Z,45.00
2022-10-24T12:26:19.764Z,44.80
2022-10-24T12:29:01.346Z,44.08
2022-10-24T12:32:15.599Z,42.88
2022-10-24T12:35:29.060Z,41.70
2022-10-24T12:37:55.934Z,40.40
2022-10-24T12:40:57.751Z,40.96
2022-10-24T12:43:38.189Z,41.78
2022-10-24T12:46:56.165Z,41.98
2022-10-24T12:49:34.443Z,42.40
2022-10-24T12:53:13.733Z,42.18
2022-10-24T12:59:01.884Z,40.62
2022-10-24T13:01:39.164Z,41.10
2022-10-24T13:04:54.020Z,40.92
2022-10-24T13:07:48.641Z,40.88
2022-10-24T13:10:48.965Z,41.38
2022-10-24T13:14:01.818Z,40.30
2022-10-24T13:16:45.374Z,38.88
2022-10-24T13:19:22.937Z,37.30
2022-10-24T13:21:58.761Z,35.78
2022-10-24T13:24:40.747Z,34.46
2022-10-24T13:27:31.631Z,33.28
2022-10-24T13:30:22.005Z,32.52
2022-10-24T13:33:41.219Z,31.80
2022-10-24T13:36:28.563Z,30.22
2022-10-24T13:39:11.264Z,29.12
2022-10-24T13:41:52.061Z,28.16
2022-10-24T13:44:34.481Z,27.30
2022-10-24T13:47:21.292Z,26.60
2022-10-24T13:50:02.493Z,26.00
2022-10-24T13:52:49.314Z,25.40
2022-10-24T13:55:31.619Z,24.90
2022-10-24T13:58:14.792Z,24.40
2022-10-24T14:00:58.534Z,24.04
2022-10-24T14:03:34.793Z,23.80
2022-10-24T14:06:09.972Z,23.50
2022-10-24T14:09:02.831Z,23.30
2022-10-24T14:11:45.440Z,23.10
2022-10-24T14:14:32.995Z,22.90
2022-10-24T14:17:23.739Z,22.70
2022-10-24T14:20:01.183Z,22.50
2022-10-24T14:22:41.439Z,22.36
2022-10-24T14:25:31.275Z,22.20
2022-10-24T14:28:16.281Z,22.10
2022-10-24T14:31:03.382Z,21.90
2022-10-24T14:33:45.658Z,21.80
2022-10-24T14:36:21.240Z,21.60
2022-10-24T14:38:58.875Z,21.50
2022-10-24T14:41:39.401Z,21.40
2022-10-24T14:44:18.578Z,21.30
2022-10-24T14:47:07.750Z,21.10
2022-10-24T14:49:41.849Z,21.00
2022-10-24T14:52:21.752Z,20.90
2022-10-24T14:55:04.496Z,20.80
2022-10-24T14:57:37.956Z,20.72
2022-10-24T15:00:25.306Z,20.70
2022-10-24T15:03:01.470Z,20.60
2022-10-24T15:05:41.782Z,20.50
2022-10-24T15:08:38.471Z,20.40
2022-10-24T15:11:31.665Z,20.30
2022-10-24T15:14:07.182Z,20.20
2022-10-24T15:16:43.078Z,20.20
2022-10-24T15:19:19.380Z,20.10
2022-10-24T15:21:53.303Z,20.00
2022-10-24T15:24:29.430Z,19.90
2022-10-24T15:27:25.692Z,19.80
2022-10-24T15:30:00.657Z,19.80
2022-10-24T15:32:35.900Z,19.80
2022-10-24T15:35:10.909Z,19.74
2022-10-24T15:37:56.158Z,19.70
2022-10-24T15:40:35.318Z,19.66
2022-10-24T15:43:11.199Z,19.60
2022-10-24T15:45:45.466Z,19.58
2022-10-24T15:48:19.359Z,19.50
2022-10-24T15:50:53.479Z,19.46
2022-10-24T15:53:26.776Z,19.40
2022-10-24T15:56:00.056Z,19.40
2022-10-24T15:58:36.370Z,19.40
2022-10-24T16:01:19.905Z,19.40
2022-10-24T16:03:53.534Z,19.40
2022-10-24T16:06:28.500Z,19.40
2022-10-24T16:09:01.804Z,19.30
2022-10-24T16:11:35.139Z,19.30
2022-10-24T16:14:08.303Z,19.30
2022-10-24T16:16:41.595Z,19.30
2022-10-24T16:19:16.050Z,19.30
2022-10-24T16:21:49.483Z,19.20
2022-10-24T16:24:23.093Z,19.20
2022-10-24T16:26:57.188Z,19.18
2022-10-24T16:29:30.961Z,19.10
2022-10-24T16:32:04.477Z,19.10
2022-10-24T16:34:37.689Z,19.00
2022-10-24T16:37:10.865Z,19.00
2022-10-24T16:39:44.080Z,18.90
2022-10-24T16:42:18.871Z,18.90
2022-10-24T16:44:52.167Z,18.80
2022-10-24T16:47:26.081Z,18.80
2022-10-24T16:50:02.736Z,18.74
2022-10-24T16:52:35.934Z,18.70
2022-10-24T16:55:12.853Z,18.70
2022-10-24T16:57:46.285Z,18.60
2022-10-24T17:00:22.688Z,18.60
2022-10-24T17:02:59.120Z,18.52
2022-10-24T17:05:34.802Z,18.50
2022-10-24T17:08:08.768Z,18.50
2022-10-24T17:10:41.996Z,18.56
2022-10-24T17:13:15.369Z,18.52
2022-10-24T17:15:49.077Z,18.60
2022-10-24T17:18:23.551Z,18.60
2022-10-24T17:21:00.357Z,18.50
2022-10-24T17:23:35.485Z,18.50
2022-10-24T17:26:18.168Z,18.44
2022-10-24T17:28:52.437Z,18.46
2022-10-24T17:31:26.229Z,18.50
2022-10-24T17:34:00.837Z,18.50
2022-10-24T17:36:41.342Z,18.50
2022-10-24T17:40:22.733Z,18.50
2022-10-24T17:43:16.629Z,18.50
2022-10-24T17:46:27.710Z,18.40
2022-10-24T17:49:05.969Z,18.40
2022-10-24T17:52:01.113Z,18.40
2022-10-24T17:54:45.667Z,18.40
2022-10-24T17:57:40.683Z,18.34
2022-10-24T18:00:27.651Z,18.30
2022-10-24T18:03:14.598Z,18.20
2022-10-24T18:06:09.891Z,18.10
2022-10-24T18:08:58.922Z,18.00
2022-10-24T18:11:44.209Z,17.98
2022-10-24T18:14:19.438Z,17.90
2022-10-24T18:17:06.227Z,17.80
2022-10-24T18:19:49.786Z,17.80
2022-10-24T18:22:23.123Z,17.80
2022-10-24T18:24:56.916Z,17.80
2022-10-24T18:27:30.352Z,17.70
2022-10-24T18:30:03.814Z,17.70
2022-10-24T18:32:40.018Z,17.70
2022-10-24T18:35:13.698Z,17.60
2022-10-24T18:37:47.671Z,17.60
2022-10-24T18:40:23.182Z,17.50
2022-10-24T18:43:04.258Z,17.40
2022-10-24T18:45:40.227Z,17.40
2022-10-24T18:48:15.485Z,17.40
2022-10-24T18:50:52.211Z,17.38
2022-10-24T18:53:31.667Z,17.38
2022-10-24T18:56:05.686Z,17.38
2022-10-24T18:58:40.736Z,17.38
2022-10-24T19:01:27.463Z,17.30
2022-10-24T19:04:06.975Z,17.30
2022-10-24T19:06:41.311Z,17.30
2022-10-24T19:09:21.339Z,17.40
2022-10-24T19:11:55.244Z,17.40
2022-10-24T19:14:29.234Z,17.40
2022-10-24T19:17:04.200Z,17.40
2022-10-24T19:19:38.172Z,17.42
2022-10-24T19:22:11.676Z,17.50
2022-10-24T19:24:45.243Z,17.48
2022-10-24T19:27:18.698Z,17.40
2022-10-24T19:29:52.803Z,17.40
2022-10-24T19:32:28.535Z,17.40
2022-10-24T19:35:04.757Z,17.40
2022-10-24T19:37:40.361Z,17.50
2022-10-24T19:40:15.683Z,17.60
2022-10-24T19:42:51.477Z,17.60
2022-10-24T19:45:25.485Z,17.60
2022-10-24T19:47:59.763Z,17.70
2022-10-24T19:50:33.125Z,17.70
2022-10-24T19:53:06.623Z,17.60
2022-10-24T19:55:42.307Z,17.60
2022-10-24T19:58:20.105Z,17.70
2022-10-24T20:00:53.594Z,17.70
2022-10-24T20:03:26.984Z,17.70
2022-10-24T20:06:05.410Z,17.78
2022-10-24T20:08:41.166Z,17.80
2022-10-24T20:11:15.495Z,17.80
2022-10-24T20:13:52.714Z,17.80
2022-10-24T20:16:25.981Z,17.80
2022-10-24T20:19:00.461Z,17.80
2022-10-24T20:21:35.521Z,17.80
2022-10-24T20:24:11.145Z,17.80
2022-10-24T20:26:44.273Z,17.80
2022-10-24T20:29:17.464Z,17.80
2022-10-24T20:31:51.162Z,17.72
2022-10-24T20:34:24.679Z,17.72
2022-10-24T20:36:57.862Z,17.72
2022-10-24T20:39:31.040Z,17.70
2022-10-24T20:42:04.188Z,17.70
2022-10-24T20:44:37.390Z,17.62
2022-10-24T20:47:10.953Z,17.60
2022-10-24T20:49:44.244Z,17.60
2022-10-24T20:52:17.317Z,17.50
2022-10-24T20:54:50.873Z,17.50
2022-10-24T20:57:26.625Z,17.54
2022-10-24T21:00:03.134Z,17.60
2022-10-24T21:02:47.548Z,17.60
2022-10-24T21:05:31.567Z,17.60
2022-10-24T21:08:06.019Z,17.50
2022-10-24T21:10:45.578Z,17.40
2022-10-24T21:13:26.289Z,17.30
2022-10-24T21:16:06.636Z,17.28
2022-10-24T21:18:45.604Z,17.30
2022-10-24T21:21:28.515Z,17.38
2022-10-24T21:24:06.950Z,17.40
2022-10-24T21:26:45.512Z,17.40
2022-10-24T21:29:38.084Z,17.30
2022-10-24T21:32:16.194Z,17.30
2022-10-24T21:34:53.959Z,17.30
2022-10-24T21:37:49.685Z,17.30
2022-10-24T21:40:32.989Z,17.20
2022-10-24T21:43:08.431Z,17.20
2022-10-24T21:45:41.753Z,17.16
2022-10-24T21:48:19.772Z,17.10
2022-10-24T21:51:01.551Z,17.10
2022-10-24T21:53:39.024Z,17.10
2022-10-24T21:56:15.260Z,17.10
2022-10-24T21:58:54.480Z,17.00
2022-10-24T22:01:31.232Z,17.00
2022-10-24T22:04:06.849Z,16.90
2022-10-24T22:06:40.833Z,16.90
2022-10-24T22:09:19.633Z,16.90
2022-10-24T22:11:54.545Z,16.86
2022-10-24T22:14:27.987Z,16.86
2022-10-24T22:17:10.356Z,16.84
2022-10-24T22:19:43.512Z,16.86
2022-10-24T22:22:16.918Z,16.80
2022-10-24T22:24:50.805Z,16.80
2022-10-24T22:27:24.013Z,16.80
2022-10-24T22:30:00.430Z,16.70
2022-10-24T22:32:34.564Z,16.70
2022-10-24T22:35:16.417Z,16.70
2022-10-24T22:37:51.103Z,16.78
2022-10-24T22:40:34.165Z,16.90
2022-10-24T22:43:10.698Z,17.00
2022-10-24T22:45:50.913Z,16.92
2022-10-24T22:48:31.320Z,16.90
2022-10-24T22:51:23.737Z,16.90
2022-10-24T22:53:59.811Z,16.90
2022-10-24T22:56:42.894Z,16.80
2022-10-24T22:59:20.763Z,16.80
2022-10-24T23:02:16.857Z,16.70
2022-10-24T23:05:06.553Z,16.74
2022-10-24T23:07:56.694Z,16.70
2022-10-24T23:10:34.144Z,16.60
2022-10-24T23:13:12.613Z,16.50
2022-10-24T23:15:47.602Z,16.40
2022-10-24T23:18:22.284Z,16.38
2022-10-24T23:21:07.175Z,16.30
2022-10-24T23:23:41.699Z,16.20
2022-10-24T23:26:33.675Z,16.10
2022-10-24T23:29:22.192Z,16.10
2022-10-24T23:31:58.558Z,16.00
2022-10-24T23:34:36.897Z,15.90
2022-10-24T23:37:32.106Z,15.82
2022-10-24T23:40:24.710Z,15.80
2022-10-24T23:43:01.028Z,15.80
2022-10-24T23:45:43.838Z,15.70
2022-10-24T23:48:36.392Z,15.70
2022-10-24T23:51:16.626Z,15.50
2022-10-24T23:53:56.503Z,15.40
2022-10-24T23:56:32.862Z,15.30
2022-10-24T23:59:07.590Z,15.20
